Time;durP1;ratioP1;P1;durP2;ratioP2;P2;SDS_P1;SDS_P2;PMS_P1;PMS_P2;Temp;Humidity;BMP_temperature;BMP_pressure;BME280_temperature;BME280_humidity;BME280_pressure;Samples;Min_cycle;Max_cycle;Signal;HPM_P1;HPM_P2
2021/12/27 00:00:21;;;;;;;26.92;14.80;;;;;;;5.16;100.00;93980.91;5053542;28;20025;-70
2021/12/27 00:02:50;;;;;;;30.45;15.70;;;;;;;5.07;100.00;93997.13;5052661;28;20029;-70
2021/12/27 00:05:16;;;;;;;24.02;13.25;;;;;;;4.89;100.00;93976.53;5053490;28;20128;-70
2021/12/27 00:07:43;;;;;;;31.13;16.35;;;;;;;5.29;100.00;93996.78;5053441;28;20071;-70
2021/12/27 00:10:09;;;;;;;32.35;16.02;;;;;;;5.38;98.73;94004.72;5052436;28;20394;-70
2021/12/27 00:12:35;;;;;;;32.95;16.42;;;;;;;5.36;98.25;93984.91;5056978;28;20025;-70
2021/12/27 00:15:00;;;;;;;30.70;18.58;;;;;;;5.53;97.80;93995.91;5060005;28;20052;-70
2021/12/27 00:17:26;;;;;;;33.50;18.45;;;;;;;5.34;98.41;93982.66;5053340;28;20072;-70
2021/12/27 00:19:51;;;;;;;34.45;18.42;;;;;;;5.55;97.13;93991.56;5053590;28;20098;-71
2021/12/27 00:22:16;;;;;;;40.60;18.75;;;;;;;5.39;98.78;93973.19;5053928;28;20025;-71
2021/12/27 00:24:46;;;;;;;42.28;20.05;;;;;;;5.49;97.47;93988.03;5053360;28;20419;-71
2021/12/27 00:27:16;;;;;;;39.72;19.50;;;;;;;5.29;98.18;93974.50;5053226;28;20020;-71
2021/12/27 00:29:43;;;;;;;36.50;18.42;;;;;;;5.01;98.85;93972.81;5053211;28;20087;-71
2021/12/27 00:32:08;;;;;;;34.53;17.95;;;;;;;5.06;99.53;93979.50;5053086;28;20111;-71
2021/12/27 00:34:36;;;;;;;33.28;17.98;;;;;;;5.06;99.94;93971.44;5052061;28;20112;-70
2021/12/27 00:37:04;;;;;;;35.20;17.38;;;;;;;4.67;100.00;93988.34;5053227;28;20051;-70
2021/12/27 00:39:48;;;;;;;27.52;16.85;;;;;;;4.85;100.00;93986.72;5053222;28;20032;-71
2021/12/27 00:42:13;;;;;;;30.20;17.00;;;;;;;5.02;100.00;93976.25;5053655;28;20339;-70
2021/12/27 00:44:39;;;;;;;34.08;18.52;;;;;;;5.30;100.00;93989.44;5053056;28;20032;-70
2021/12/27 00:47:04;;;;;;;30.77;16.70;;;;;;;5.19;98.66;94004.16;5053336;28;20086;-71
2021/12/27 00:49:30;;;;;;;30.55;16.38;;;;;;;5.33;99.56;93980.44;5052895;28;20454;-71
2021/12/27 00:51:56;;;;;;;31.67;17.23;;;;;;;5.14;98.61;93990.63;5051905;28;20025;-71
2021/12/27 00:54:21;;;;;;;34.40;17.15;;;;;;;4.63;100.00;93966.28;5053156;28;20100;-71
2021/12/27 00:56:47;;;;;;;28.75;17.52;;;;;;;4.66;100.00;93980.75;5052905;28;20083;-71
2021/12/27 00:59:13;;;;;;;32.92;17.95;;;;;;;4.70;100.00;93992.81;5052854;28;20032;-71
2021/12/27 01:01:39;;;;;;;30.30;17.08;;;;;;;4.80;100.00;93995.41;5052226;28;20060;-71
2021/12/27 01:04:05;;;;;;;29.25;17.55;;;;;;;4.61;100.00;93967.94;5052887;28;20103;-71
2021/12/27 01:06:31;;;;;;;30.25;17.83;;;;;;;4.85;100.00;93987.47;5052791;28;20050;-70
2021/12/27 01:08:57;;;;;;;33.22;17.67;;;;;;;4.66;100.00;93999.56;5052987;28;20029;-70
2021/12/27 01:14:02;;;;;;;30.40;18.38;;;;;;;5.06;100.00;93963.38;5052670;28;20028;-70
2021/12/27 01:16:28;;;;;;;31.73;18.33;;;;;;;5.17;100.00;93990.47;5052874;28;20025;-70
2021/12/27 01:18:54;;;;;;;28.67;16.38;;;;;;;5.01;100.00;93993.59;5052946;28;20028;-70
2021/12/27 01:21:22;;;;;;;29.00;16.88;;;;;;;5.02;100.00;93973.56;5052795;28;20032;-70
2021/12/27 01:23:50;;;;;;;34.05;18.23;;;;;;;5.32;99.08;93995.09;5052598;28;20024;-70
2021/12/27 01:26:15;;;;;;;31.30;17.25;;;;;;;5.23;99.68;93977.09;5052861;28;20466;-70
2021/12/27 01:28:41;;;;;;;37.45;16.77;;;;;;;5.26;100.00;93976.16;5052534;28;20029;-70
2021/12/27 01:31:07;;;;;;;30.60;17.35;;;;;;;4.89;100.00;93976.53;5052513;28;20020;-70
2021/12/27 01:33:33;;;;;;;29.35;17.27;;;;;;;5.00;100.00;93965.94;5052509;28;20021;-70
2021/12/27 01:36:00;;;;;;;27.95;17.30;;;;;;;4.91;100.00;93988.28;5051365;28;20112;-70
2021/12/27 01:38:26;;;;;;;32.30;18.08;;;;;;;5.14;100.00;93969.88;5052687;28;20021;-70
2021/12/27 01:40:54;;;;;;;34.30;18.80;;;;;;;4.96;100.00;93961.97;5052373;28;20035;-70
2021/12/27 01:43:25;;;;;;;32.92;18.45;;;;;;;5.12;100.00;93972.28;5052360;28;20056;-70
2021/12/27 01:46:13;;;;;;;36.70;19.05;;;;;;;4.81;100.00;93970.75;5052647;28;20021;-70
2021/12/27 01:48:41;;;;;;;33.08;18.92;;;;;;;5.00;100.00;93970.59;5055401;28;20083;-70
2021/12/27 01:51:11;;;;;;;29.42;16.92;;;;;;;4.68;100.00;93935.34;5055359;28;20367;-70
2021/12/27 01:53:38;;;;;;;29.75;17.02;;;;;;;5.13;100.00;93946.84;5056326;28;20071;-70
2021/12/27 01:56:07;;;;;;;30.90;15.95;;;;;;;5.25;99.54;93956.59;5056769;28;20036;-70
2021/12/27 01:58:33;;;;;;;24.70;15.70;;;;;;;5.24;99.75;93963.16;5055945;28;20025;-70
2021/12/27 02:01:02;;;;;;;26.23;15.90;;;;;;;5.12;100.00;93958.81;5062184;28;20045;-70
2021/12/27 02:03:30;;;;;;;34.35;17.23;;;;;;;4.84;100.00;93963.72;5058665;28;20029;-70
2021/12/27 02:05:58;;;;;;;34.13;18.85;;;;;;;4.91;100.00;93963.38;5056365;28;20382;-70
2021/12/27 02:08:24;;;;;;;27.13;16.05;;;;;;;4.81;100.00;93954.63;5055740;28;20028;-69
2021/12/27 02:10:50;;;;;;;31.70;16.70;;;;;;;5.09;100.00;93954.38;5055910;28;20017;-69
2021/12/27 02:13:17;;;;;;;32.65;17.52;;;;;;;4.91;100.00;93953.34;5055548;28;20486;-69
2021/12/27 02:15:42;;;;;;;27.75;16.63;;;;;;;4.86;100.00;93945.19;5055830;28;20035;-70
2021/12/27 02:18:11;;;;;;;30.33;16.63;;;;;;;5.02;100.00;93947.41;5055462;28;20124;-70
2021/12/27 02:20:39;;;;;;;24.25;15.40;;;;;;;5.19;100.00;93938.88;5055291;28;20029;-70
2021/12/27 02:23:11;;;;;;;29.75;16.73;;;;;;;4.83;100.00;93925.34;5055594;28;20024;-69
2021/12/27 02:25:37;;;;;;;29.02;16.27;;;;;;;4.99;100.00;93948.34;5056051;28;20322;-70
2021/12/27 02:28:05;;;;;;;29.70;16.45;;;;;;;4.84;100.00;93937.56;5055239;28;20116;-70
2021/12/27 02:30:31;;;;;;;31.02;16.92;;;;;;;5.01;100.00;93937.13;5055139;28;20025;-70
2021/12/27 02:33:00;;;;;;;28.27;16.02;;;;;;;4.78;100.00;93939.41;5055411;28;20094;-70
2021/12/27 02:35:32;;;;;;;30.90;15.85;;;;;;;4.95;100.00;93925.50;5055077;28;20029;-69
2021/12/27 02:38:00;;;;;;;26.75;15.98;;;;;;;4.86;100.00;93923.66;5054103;28;20029;-69
2021/12/27 02:40:28;;;;;;;26.33;15.77;;;;;;;4.86;100.00;93924.41;5054911;28;20094;-70
2021/12/27 02:43:09;;;;;;;28.65;17.08;;;;;;;4.90;100.00;93913.47;5054959;28;20108;-70
2021/12/27 02:45:38;;;;;;;26.65;16.00;;;;;;;4.95;100.00;93928.97;5054935;28;20035;-70
2021/12/27 02:48:05;;;;;;;29.77;16.00;;;;;;;4.83;100.00;93925.34;5054962;28;20035;-70
2021/12/27 02:50:31;;;;;;;29.73;17.95;;;;;;;5.12;100.00;93921.16;5054882;28;20052;-70
2021/12/27 02:52:58;;;;;;;32.08;16.50;;;;;;;5.04;100.00;93928.13;5055211;28;20033;-70
2021/12/27 02:55:24;;;;;;;27.38;16.95;;;;;;;5.05;100.00;93918.84;5054772;28;20109;-70
2021/12/27 02:57:50;;;;;;;32.50;17.42;;;;;;;5.17;100.00;93914.41;5055114;28;20115;-70
2021/12/27 03:00:23;;;;;;;29.77;16.45;;;;;;;5.23;100.00;93932.09;5053668;28;20033;-70
2021/12/27 03:02:50;;;;;;;24.17;15.20;;;;;;;5.23;100.00;93918.63;5055096;28;20043;-70
2021/12/27 03:05:18;;;;;;;31.05;16.55;;;;;;;5.29;100.00;93921.44;5056371;28;20032;-70
2021/12/27 03:07:46;;;;;;;28.25;16.67;;;;;;;5.31;100.00;93920.97;5076637;28;20051;-70
2021/12/27 03:10:14;;;;;;;29.13;17.23;;;;;;;5.25;100.00;93915.50;5078862;28;20036;-70
2021/12/27 03:12:40;;;;;;;33.47;17.10;;;;;;;5.18;100.00;93905.09;5075013;28;20025;-70
2021/12/27 03:15:10;;;;;;;27.08;15.02;;;;;;;4.75;100.00;93910.78;5074681;28;20048;-71
2021/12/27 03:17:36;;;;;;;32.28;16.92;;;;;;;5.18;100.00;93922.00;5069896;28;20127;-70
2021/12/27 03:20:06;;;;;;;29.30;16.45;;;;;;;5.17;100.00;93919.78;5054724;28;20117;-70
2021/12/27 03:22:33;;;;;;;27.00;16.00;;;;;;;5.05;100.00;93918.84;5053431;28;20020;-70
2021/12/27 03:24:59;;;;;;;22.38;15.70;;;;;;;5.22;100.00;93930.63;5054562;28;20025;-70
2021/12/27 03:27:25;;;;;;;24.95;15.27;;;;;;;5.04;100.00;93920.06;5054558;28;20037;-70
2021/12/27 03:29:52;;;;;;;23.45;14.20;;;;;;;5.12;100.00;93902.31;5054520;28;20203;-70
2021/12/27 03:32:21;;;;;;;30.05;16.63;;;;;;;5.32;100.00;93904.34;5054381;28;20035;-70
2021/12/27 03:35:03;;;;;;;25.08;14.60;;;;;;;5.42;100.00;93913.06;5054196;28;20029;-70
2021/12/27 03:37:30;;;;;;;28.13;14.75;;;;;;;5.13;100.00;93903.81;5054612;28;20191;-70
2021/12/27 03:39:55;;;;;;;27.67;16.17;;;;;;;5.11;100.00;93906.22;5052918;28;20371;-70
2021/12/27 03:42:21;;;;;;;30.13;17.52;;;;;;;5.18;100.00;93895.09;5053793;28;20058;-70
2021/12/27 03:44:46;;;;;;;31.10;17.88;;;;;;;5.34;100.00;93898.50;5053997;28;20090;-70
2021/12/27 03:47:12;;;;;;;28.02;17.85;;;;;;;5.38;100.00;93872.13;5063475;28;20028;-70
2021/12/27 03:49:37;;;;;;;30.00;18.25;;;;;;;5.46;100.00;93881.31;5054411;28;20059;-69
2021/12/27 03:52:04;;;;;;;31.63;17.48;;;;;;;5.37;100.00;93878.72;5052849;28;20076;-70
2021/12/27 03:54:29;;;;;;;30.48;18.83;;;;;;;5.15;100.00;93879.88;5052853;28;20481;-70
2021/12/27 03:56:55;;;;;;;33.72;19.33;;;;;;;5.34;100.00;93893.13;5053775;28;20025;-70
2021/12/27 03:59:36;;;;;;;33.53;20.70;;;;;;;5.39;100.00;93876.31;5054141;28;20025;-70
2021/12/27 04:02:05;;;;;;;34.75;19.67;;;;;;;5.38;100.00;93890.97;5052674;28;20040;-70
2021/12/27 04:04:30;;;;;;;32.15;19.65;;;;;;;5.32;100.00;93890.16;5054126;28;20036;-70
2021/12/27 04:06:56;;;;;;;34.65;21.90;;;;;;;5.35;100.00;93900.00;5052619;28;20025;-70
2021/12/27 04:09:22;;;;;;;36.20;20.98;;;;;;;5.24;100.00;93887.84;5052573;28;20105;-70
2021/12/27 04:11:47;;;;;;;34.00;19.75;;;;;;;5.29;100.00;93899.16;5053202;28;20113;-70
2021/12/27 04:14:13;;;;;;;40.42;21.25;;;;;;;5.06;100.00;93904.19;5053523;28;20394;-70
2021/12/27 04:16:38;;;;;;;41.10;22.35;;;;;;;5.12;100.00;93896.94;5053260;28;20028;-70
2021/12/27 04:19:04;;;;;;;35.33;19.77;;;;;;;5.27;100.00;93902.31;5053389;28;20047;-70
2021/12/27 04:21:31;;;;;;;33.58;18.27;;;;;;;5.11;100.00;93906.22;5053273;28;20035;-70
2021/12/27 04:23:56;;;;;;;33.63;18.48;;;;;;;5.29;100.00;93899.16;5053254;28;20021;-70
2021/12/27 04:26:22;;;;;;;34.97;19.35;;;;;;;5.36;100.00;93894.13;5053196;28;20040;-70
2021/12/27 04:28:49;;;;;;;33.80;19.27;;;;;;;5.33;100.00;93910.47;5053450;28;20029;-71
2021/12/27 04:31:15;;;;;;;36.97;18.73;;;;;;;4.77;100.00;93894.19;5053709;28;20021;-70
2021/12/27 04:33:41;;;;;;;35.10;20.13;;;;;;;4.79;100.00;93889.81;5053199;28;20033;-70
2021/12/27 04:36:07;;;;;;;31.38;20.10;;;;;;;4.96;100.00;93894.72;5053417;28;20458;-71
2021/12/27 04:38:33;;;;;;;39.22;19.60;;;;;;;5.03;100.00;93911.25;5053200;28;20036;-70
2021/12/27 04:41:00;;;;;;;34.25;19.27;;;;;;;4.98;100.00;93897.72;5053028;28;20029;-70
2021/12/27 04:43:26;;;;;;;32.60;18.90;;;;;;;4.85;100.00;93901.44;5053313;28;20021;-70
2021/12/27 04:45:53;;;;;;;33.53;19.02;;;;;;;4.90;100.00;93908.09;5053033;28;20021;-68
2021/12/27 04:48:23;;;;;;;33.50;19.30;;;;;;;5.07;100.00;93905.66;5053107;28;20487;-70
2021/12/27 04:50:48;;;;;;;34.05;16.95;;;;;;;4.80;100.00;93915.50;5052954;28;20020;-71
2021/12/27 04:53:14;;;;;;;32.45;16.65;;;;;;;4.73;100.00;93907.78;5052987;28;20028;-71
2021/12/27 04:55:40;;;;;;;34.63;17.58;;;;;;;5.03;100.00;93905.88;5052934;28;20028;-71
2021/12/27 04:58:08;;;;;;;32.08;18.10;;;;;;;5.21;100.00;93912.25;5051918;28;20044;-71
2021/12/27 05:00:34;;;;;;;25.27;15.55;;;;;;;5.15;100.00;93906.78;5051787;28;20028;-71
2021/12/27 05:03:00;;;;;;;26.05;15.27;;;;;;;5.24;100.00;93912.06;5053070;28;20025;-71
2021/12/27 05:05:26;;;;;;;28.65;15.73;;;;;;;5.12;100.00;93915.78;5052834;28;20094;-71
2021/12/27 05:07:52;;;;;;;25.73;15.43;;;;;;;4.93;100.00;93919.88;5053052;28;20429;-71
2021/12/27 05:10:18;;;;;;;21.83;13.82;;;;;;;4.98;100.00;93908.47;5051846;28;20025;-70
2021/12/27 05:12:44;;;;;;;24.35;13.73;;;;;;;5.08;100.00;93907.16;5052067;28;20044;-70
2021/12/27 05:15:10;;;;;;;24.63;13.93;;;;;;;5.30;100.00;93901.38;5052974;28;20035;-71
2021/12/27 05:17:36;;;;;;;21.20;13.25;;;;;;;5.10;100.00;93899.38;5051797;28;20397;-71
2021/12/27 05:20:04;;;;;;;20.85;12.65;;;;;;;5.00;100.00;93906.78;5052461;28;20175;-69
2021/12/27 05:22:31;;;;;;;22.23;14.00;;;;;;;5.04;100.00;93911.97;5053753;28;20029;-69
2021/12/27 05:24:57;;;;;;;24.58;12.98;;;;;;;5.02;100.00;93903.66;5056552;28;20480;-71
2021/12/27 05:27:23;;;;;;;18.52;11.73;;;;;;;5.22;100.00;93902.97;5056802;28;20071;-70
2021/12/27 05:29:49;;;;;;;18.85;13.02;;;;;;;5.11;100.00;93911.59;5056773;28;20029;-70
2021/12/27 05:32:15;;;;;;;23.15;13.90;;;;;;;5.00;100.00;93911.44;5056424;28;20470;-71
2021/12/27 05:34:40;;;;;;;26.13;14.30;;;;;;;4.96;100.00;93910.88;5055503;28;20033;-70
2021/12/27 05:37:06;;;;;;;19.70;11.80;;;;;;;4.74;100.00;93906.59;5065135;28;20446;-70
2021/12/27 05:39:33;;;;;;;20.17;12.35;;;;;;;4.80;100.00;93923.56;5056277;28;20443;-70
2021/12/27 05:41:59;;;;;;;24.48;14.20;;;;;;;4.71;100.00;93912.91;5056071;28;20067;-69
2021/12/27 05:44:24;;;;;;;23.45;14.90;;;;;;;4.93;100.00;93906.44;5056092;28;20048;-70
2021/12/27 05:46:50;;;;;;;28.25;15.90;;;;;;;4.95;100.00;93914.75;5056139;28;20021;-69
2021/12/27 05:49:15;;;;;;;31.40;16.92;;;;;;;5.00;100.00;93906.03;5056027;28;20031;-70
2021/12/27 05:51:43;;;;;;;27.25;16.13;;;;;;;5.24;100.00;93909.34;5056173;28;20013;-70
2021/12/27 05:54:09;;;;;;;31.73;16.25;;;;;;;5.31;100.00;93912.91;5056016;28;20021;-70
2021/12/27 05:56:35;;;;;;;26.20;14.95;;;;;;;4.74;100.00;93910.03;5055287;28;20373;-69
2021/12/27 05:59:00;;;;;;;27.95;15.48;;;;;;;4.80;100.00;93907.44;5055951;28;20050;-70
2021/12/27 06:01:26;;;;;;;28.30;15.35;;;;;;;4.84;100.00;93921.44;5056174;28;20104;-70
2021/12/27 06:03:53;;;;;;;27.05;15.43;;;;;;;4.78;100.00;93901.03;5056034;28;20074;-71
2021/12/27 06:06:19;;;;;;;25.70;15.68;;;;;;;4.96;100.00;93911.59;5056257;28;20632;-70
2021/12/27 06:08:44;;;;;;;29.50;15.70;;;;;;;4.23;100.00;93913.75;5055911;28;20104;-70
2021/12/27 06:11:10;;;;;;;32.53;16.77;;;;;;;4.79;100.00;93908.66;5055908;28;20016;-71
2021/12/27 06:13:35;;;;;;;24.20;14.88;;;;;;;4.97;100.00;93904.28;5056155;28;20029;-71
2021/12/27 06:16:01;;;;;;;25.42;15.85;;;;;;;5.18;100.00;93905.09;5055790;28;20020;-70
2021/12/27 06:18:26;;;;;;;25.63;15.82;;;;;;;5.05;100.00;93908.81;5055499;28;20059;-70
2021/12/27 06:20:52;;;;;;;28.45;16.02;;;;;;;5.08;100.00;93909.84;5055840;28;20021;-70
2021/12/27 06:23:17;;;;;;;27.15;14.82;;;;;;;5.03;100.00;93905.09;5055887;28;20025;-70
2021/12/27 06:25:43;;;;;;;24.65;14.90;;;;;;;5.01;100.00;93910.22;5055525;28;20017;-70
2021/12/27 06:28:10;;;;;;;23.08;14.27;;;;;;;5.20;100.00;93913.47;5055570;28;20389;-70
2021/12/27 06:30:36;;;;;;;23.55;13.57;;;;;;;5.22;100.00;93914.47;5055766;28;20040;-70
2021/12/27 06:33:01;;;;;;;20.63;14.20;;;;;;;5.56;100.00;93906.16;5055142;28;20470;-70
2021/12/27 06:35:27;;;;;;;22.40;14.15;;;;;;;5.23;100.00;93880.97;5054443;28;20060;-70
2021/12/27 06:37:52;;;;;;;24.80;15.45;;;;;;;5.27;100.00;93853.16;5054338;28;20032;-70
2021/12/27 06:40:18;;;;;;;27.63;16.70;;;;;;;5.07;100.00;93858.00;5055171;28;20025;-71
2021/12/27 06:42:46;;;;;;;32.63;17.73;;;;;;;5.24;100.00;93865.59;5055168;28;20419;-70
2021/12/27 06:45:12;;;;;;;26.83;16.33;;;;;;;5.56;100.00;93871.16;5055464;28;20098;-71
2021/12/27 06:47:38;;;;;;;29.00;16.73;;;;;;;5.73;100.00;93882.91;5055419;28;20028;-70
2021/12/27 06:50:05;;;;;;;28.60;18.30;;;;;;;5.46;100.00;93867.13;5055148;28;20072;-70
2021/12/27 06:52:30;;;;;;;33.08;18.10;;;;;;;5.29;100.00;93888.38;5053906;28;20016;-69
2021/12/27 06:54:56;;;;;;;28.02;16.25;;;;;;;4.86;100.00;93881.38;5054980;28;20032;-69
2021/12/27 06:57:21;;;;;;;26.25;14.77;;;;;;;5.10;100.00;93879.78;5054698;28;20426;-69
2021/12/27 06:59:48;;;;;;;26.13;14.85;;;;;;;5.18;100.00;93876.25;5054687;28;20117;-69
2021/12/27 07:02:14;;;;;;;26.90;15.35;;;;;;;5.65;100.00;93862.22;5054987;28;20020;-70
2021/12/27 07:04:39;;;;;;;25.20;15.27;;;;;;;5.58;100.00;93868.75;5054601;28;20036;-69
2021/12/27 07:07:05;;;;;;;24.45;15.30;;;;;;;5.80;100.00;93865.59;5054563;28;20133;-71
2021/12/27 07:09:31;;;;;;;25.73;13.60;;;;;;;5.77;100.00;93885.41;5054864;28;20576;-70
2021/12/27 07:11:56;;;;;;;22.00;12.98;;;;;;;5.76;100.00;93862.38;5054567;28;20025;-70
2021/12/27 07:14:22;;;;;;;20.00;12.60;;;;;;;5.99;100.00;93876.88;5054444;28;20021;-71
2021/12/27 07:16:47;;;;;;;22.50;12.88;;;;;;;6.38;100.00;93867.75;5054226;28;20118;-71
2021/12/27 07:19:13;;;;;;;24.55;13.45;;;;;;;6.28;100.00;93880.63;5054292;28;20028;-71
2021/12/27 07:21:38;;;;;;;26.42;13.40;;;;;;;6.42;100.00;93873.66;5054714;28;20035;-71
2021/12/27 07:24:04;;;;;;;24.05;14.38;;;;;;;6.46;100.00;93876.91;5064082;28;20045;-69
2021/12/27 07:26:30;;;;;;;23.25;14.10;;;;;;;6.66;100.00;93884.22;5055337;28;20481;-70
2021/12/27 07:28:56;;;;;;;25.95;14.25;;;;;;;6.41;100.00;93869.50;5054688;28;20021;-71
2021/12/27 07:31:22;;;;;;;18.48;11.98;;;;;;;6.90;97.94;93892.03;5054598;28;20075;-71
2021/12/27 07:33:48;;;;;;;17.33;11.02;;;;;;;7.02;95.35;93875.94;5054700;28;20036;-70
2021/12/27 07:36:15;;;;;;;19.33;11.73;;;;;;;7.18;96.60;93875.31;5054243;28;20394;-69
2021/12/27 07:38:42;;;;;;;19.42;11.35;;;;;;;7.15;95.70;93902.53;5054271;28;20521;-69
2021/12/27 07:41:08;;;;;;;20.50;11.65;;;;;;;7.10;94.64;93885.84;5054158;28;20017;-71
2021/12/27 07:43:34;;;;;;;15.75;10.90;;;;;;;7.24;95.04;93876.13;5052990;28;20025;-71
2021/12/27 07:45:59;;;;;;;19.67;10.55;;;;;;;7.46;94.26;93880.19;5053456;28;20040;-71
2021/12/27 07:48:25;;;;;;;20.23;10.88;;;;;;;7.25;93.32;93880.31;5053949;28;20477;-70
2021/12/27 07:50:51;;;;;;;20.15;11.75;;;;;;;6.76;96.65;93890.19;5054256;28;20017;-71
2021/12/27 07:53:17;;;;;;;19.45;10.85;;;;;;;6.99;95.63;93877.63;5053797;28;20409;-70
2021/12/27 07:55:42;;;;;;;17.98;11.95;;;;;;;7.21;93.78;93873.63;5053832;28;20021;-70
2021/12/27 07:58:08;;;;;;;17.83;10.80;;;;;;;7.04;95.87;93870.81;5053755;28;20025;-71
2021/12/27 08:00:34;;;;;;;18.23;10.63;;;;;;;7.18;94.07;93883.41;5053571;28;20031;-71
2021/12/27 08:02:59;;;;;;;17.90;11.98;;;;;;;7.06;94.49;93865.66;5053843;28;20025;-71
2021/12/27 08:05:25;;;;;;;20.20;10.65;;;;;;;7.14;93.48;93891.00;5053920;28;20060;-71
2021/12/27 08:07:50;;;;;;;19.73;11.10;;;;;;;7.22;93.02;93848.13;5053595;28;20402;-71
2021/12/27 08:10:16;;;;;;;17.63;9.88;;;;;;;6.96;94.02;93878.59;5053524;28;20072;-71
2021/12/27 08:12:43;;;;;;;19.25;10.80;;;;;;;7.11;94.37;93873.78;5052456;28;20025;-71
2021/12/27 08:15:10;;;;;;;20.40;10.77;;;;;;;6.99;98.60;93866.09;5053477;28;20032;-71
2021/12/27 08:17:36;;;;;;;18.20;10.73;;;;;;;7.10;95.10;93874.28;5053373;28;20140;-71
2021/12/27 08:20:02;;;;;;;20.98;10.43;;;;;;;7.09;94.42;93868.16;5053350;28;20020;-71
2021/12/27 08:22:28;;;;;;;20.17;11.25;;;;;;;7.28;92.44;93873.22;5053382;28;20025;-71
2021/12/27 08:24:53;;;;;;;18.85;11.18;;;;;;;7.49;91.90;93867.69;5053363;28;20033;-71
2021/12/27 08:27:22;;;;;;;19.40;12.07;;;;;;;7.77;90.71;93857.03;5053578;28;20492;-71
2021/12/27 08:29:47;;;;;;;20.88;11.68;;;;;;;7.98;88.34;93865.00;5053493;28;20036;-71
2021/12/27 08:32:13;;;;;;;17.52;11.43;;;;;;;7.98;87.33;93859.59;5052109;28;20111;-71
2021/12/27 08:34:39;;;;;;;16.15;10.73;;;;;;;8.00;86.22;93857.88;5053098;28;20032;-71
2021/12/27 08:37:05;;;;;;;16.95;11.60;;;;;;;8.35;85.06;93864.16;5053287;28;20029;-71
2021/12/27 08:39:32;;;;;;;20.77;12.25;;;;;;;8.24;86.44;93870.25;5051938;28;20173;-71
2021/12/27 08:41:57;;;;;;;21.08;12.75;;;;;;;8.17;86.19;93876.88;5053123;28;20458;-71
2021/12/27 08:44:23;;;;;;;20.80;12.35;;;;;;;8.55;86.63;93861.28;5051965;28;20029;-71
2021/12/27 08:46:49;;;;;;;21.20;13.25;;;;;;;8.77;83.85;93870.66;5051929;28;20033;-71
2021/12/27 08:49:15;;;;;;;22.55;13.65;;;;;;;8.87;82.97;93852.22;5052932;28;20021;-71
2021/12/27 08:51:40;;;;;;;21.30;13.15;;;;;;;9.17;81.04;93847.06;5052938;28;20539;-71
2021/12/27 08:54:06;;;;;;;18.48;13.07;;;;;;;8.86;80.72;93846.09;5052908;28;20370;-71
2021/12/27 08:56:32;;;;;;;22.90;12.48;;;;;;;9.24;79.03;93846.56;5052121;28;20188;-71
2021/12/27 08:58:58;;;;;;;24.75;14.73;;;;;;;9.53;78.51;93836.44;5052610;28;20025;-71
2021/12/27 09:01:24;;;;;;;20.73;13.43;;;;;;;9.43;79.43;93843.34;5051787;28;20118;-71
2021/12/27 09:03:50;;;;;;;21.60;13.15;;;;;;;9.32;80.27;93849.50;5052759;28;20454;-71
2021/12/27 09:06:15;;;;;;;18.50;12.80;;;;;;;9.91;76.34;93834.13;5052613;28;20068;-71
2021/12/27 09:08:41;;;;;;;25.48;13.48;;;;;;;9.76;76.20;93822.81;5053142;28;20052;-71
2021/12/27 09:11:07;;;;;;;17.92;11.65;;;;;;;10.22;74.15;93815.97;5063453;28;20462;-71
2021/12/27 09:13:34;;;;;;;24.65;13.43;;;;;;;9.91;75.35;93827.94;5052727;28;20095;-71
2021/12/27 09:16:01;;;;;;;20.80;13.15;;;;;;;10.34;73.65;93829.50;5052647;28;20025;-71
2021/12/27 09:18:32;;;;;;;22.90;14.10;;;;;;;10.14;73.66;93828.59;5052507;28;20045;-71
2021/12/27 09:20:58;;;;;;;19.20;13.40;;;;;;;10.96;71.01;93815.53;5052655;28;20024;-71
2021/12/27 09:23:24;;;;;;;24.05;13.73;;;;;;;11.01;69.01;93820.19;5052620;28;20025;-71
2021/12/27 09:25:50;;;;;;;20.55;13.05;;;;;;;10.67;70.83;93817.72;5052639;28;20386;-71
2021/12/27 09:28:16;;;;;;;18.40;12.75;;;;;;;11.33;67.86;93787.81;5052646;28;20382;-71
2021/12/27 09:30:42;;;;;;;25.05;12.45;;;;;;;11.10;68.29;93786.56;5051589;28;20373;-71
2021/12/27 09:33:08;;;;;;;18.92;11.60;;;;;;;10.94;68.32;93780.03;5052464;28;20017;-71
2021/12/27 09:35:34;;;;;;;18.17;11.35;;;;;;;11.04;68.70;93794.75;5052522;28;20027;-71
2021/12/27 09:38:00;;;;;;;16.88;11.13;;;;;;;10.54;71.08;93780.31;5052993;28;20025;-71
2021/12/27 09:40:26;;;;;;;19.17;12.07;;;;;;;10.98;69.05;93786.66;5052661;28;20047;-71
2021/12/27 09:42:53;;;;;;;21.98;12.57;;;;;;;10.81;69.60;93761.63;5051530;28;20107;-70
2021/12/27 09:45:20;;;;;;;19.13;11.90;;;;;;;10.52;70.65;93761.09;5052507;28;20017;-72
2021/12/27 09:47:47;;;;;;;19.25;11.98;;;;;;;10.71;70.05;93755.06;5052358;28;20021;-70
2021/12/27 09:50:19;;;;;;;18.20;11.95;;;;;;;10.35;71.08;93755.78;5052754;28;20025;-71
2021/12/27 09:52:45;;;;;;;23.42;13.55;;;;;;;10.16;72.98;93752.91;5052669;28;20036;-70
2021/12/27 09:55:11;;;;;;;27.60;14.95;;;;;;;10.23;73.06;93755.09;5052558;28;20020;-70
2021/12/27 09:57:37;;;;;;;20.00;12.77;;;;;;;10.72;70.71;93764.66;5052357;28;20024;-71
2021/12/27 10:00:07;;;;;;;28.90;14.13;;;;;;;10.53;71.29;93754.44;5052702;28;20100;-71
2021/12/27 10:02:37;;;;;;;25.55;15.43;;;;;;;10.36;73.05;93745.66;5052754;28;20029;-71
2021/12/27 10:05:04;;;;;;;20.73;13.88;;;;;;;10.13;73.35;93764.78;5052243;28;20139;-70
2021/12/27 10:07:30;;;;;;;22.80;14.20;;;;;;;10.12;73.49;93749.75;5052130;28;20035;-71
2021/12/27 10:10:00;;;;;;;27.30;16.20;;;;;;;10.25;73.25;93747.19;5055410;28;20458;-71
2021/12/27 10:12:27;;;;;;;25.35;15.70;;;;;;;10.41;71.92;93761.91;5056481;28;20052;-72
2021/12/27 10:15:00;;;;;;;26.73;15.50;;;;;;;10.53;71.18;93749.00;5055663;28;20378;-71
2021/12/27 10:17:30;;;;;;;21.67;13.63;;;;;;;10.55;71.18;93756.63;5055670;28;20060;-70
2021/12/27 10:20:07;;;;;;;22.08;12.15;;;;;;;10.32;71.70;93759.47;5055964;28;20163;-70
2021/12/27 10:22:38;;;;;;;19.50;12.30;;;;;;;10.63;70.40;93769.16;5056208;28;20120;-70
2021/12/27 10:25:15;;;;;;;19.63;12.17;;;;;;;11.15;68.10;93739.59;5055970;28;20086;-70
2021/12/27 10:27:41;;;;;;;18.40;13.35;;;;;;;10.90;69.81;93753.16;5056252;28;20032;-71
2021/12/27 10:30:12;;;;;;;22.67;12.95;;;;;;;11.13;69.02;93714.94;5055452;28;20021;-71
2021/12/27 10:32:38;;;;;;;24.63;14.10;;;;;;;10.62;72.37;93751.41;5055294;28;20025;-71
2021/12/27 10:35:06;;;;;;;22.45;12.75;;;;;;;10.82;71.61;93722.38;5055202;28;20571;-71
2021/12/27 10:37:32;;;;;;;22.25;12.75;;;;;;;10.82;71.11;93722.38;5055203;28;20021;-71
2021/12/27 10:40:09;;;;;;;21.25;12.48;;;;;;;10.47;71.66;93737.44;5055615;28;20493;-71
2021/12/27 10:42:48;;;;;;;22.98;11.32;;;;;;;10.28;73.58;93702.81;5055181;28;20021;-71
2021/12/27 10:45:19;;;;;;;18.08;10.38;;;;;;;10.52;71.42;93709.56;5055645;28;20358;-71
2021/12/27 10:47:53;;;;;;;12.27;7.75;;;;;;;10.91;69.14;93713.19;5055537;28;20049;-71
2021/12/27 10:50:28;;;;;;;15.18;8.75;;;;;;;11.12;68.47;93705.31;5055271;28;20087;-71
2021/12/27 10:52:55;;;;;;;16.58;8.38;;;;;;;11.16;68.84;93656.91;5055056;28;20029;-72
2021/12/27 10:55:46;;;;;;;19.75;8.98;;;;;;;11.08;69.61;93685.88;5060323;28;20115;-70
2021/12/27 10:58:27;;;;;;;18.85;8.80;;;;;;;10.90;70.19;93720.59;5057958;28;20064;-70
2021/12/27 11:01:04;;;;;;;16.30;8.10;;;;;;;11.03;68.40;93656.78;5053715;28;20075;-71
2021/12/27 11:03:43;;;;;;;10.57;6.03;;;;;;;11.49;67.06;93661.22;5054181;28;20025;-71
2021/12/27 11:06:10;;;;;;;11.55;6.20;;;;;;;12.04;64.96;93719.34;5055693;28;20382;-71
2021/12/27 11:08:42;;;;;;;15.10;4.90;;;;;;;12.00;64.36;93657.84;5054845;28;20182;-71
2021/12/27 11:11:09;;;;;;;8.32;4.00;;;;;;;11.89;64.54;93649.81;5054884;28;20021;-72
2021/12/27 11:13:35;;;;;;;6.35;2.17;;;;;;;12.38;60.91;93670.66;5055005;28;20036;-71
2021/12/27 11:16:01;;;;;;;5.95;1.90;;;;;;;12.52;60.08;93704.06;5054621;28;20025;-71
2021/12/27 11:18:26;;;;;;;3.33;1.80;;;;;;;12.63;58.55;93673.94;5054595;28;20514;-72
2021/12/27 11:20:59;;;;;;;3.78;2.03;;;;;;;12.51;59.17;93686.28;5053637;28;20025;-72